Time;durP1;ratioP1;P1;durP2;ratioP2;P2;SDS_P1;SDS_P2;PMS_P1;PMS_P2;Temp;Humidity;BMP_temperature;BMP_pressure;BME280_temperature;BME280_humidity;BME280_pressure;Samples;Min_cycle;Max_cycle;Signal;HPM_P1;HPM_P2
2022/05/17 00:01:56;;;;;;;0.33;0.33;;;13.50;44.10;;;;;;5044078;28;20200;-77
2022/05/17 00:04:22;;;;;;;0.40;0.40;;;13.50;3.70;;;;;;5046847;28;20179;-78
2022/05/17 00:06:48;;;;;;;0.40;0.40;;;13.40;14.90;;;;;;5045082;28;20215;-78
2022/05/17 00:09:16;;;;;;;0.40;0.40;;;13.20;1.00;;;;;;5041025;28;20350;-78
2022/05/17 00:11:43;;;;;;;0.43;0.43;;;13.10;1.00;;;;;;5039089;28;20287;-80
2022/05/17 00:14:09;;;;;;;0.50;0.50;;;13.00;10.50;;;;;;5038849;28;20203;-79
2022/05/17 00:16:35;;;;;;;0.50;0.50;;;12.90;6.60;;;;;;5040189;28;20649;-79
2022/05/17 00:19:00;;;;;;;0.60;0.60;;;12.80;2.10;;;;;;5040219;28;20206;-79
2022/05/17 00:21:26;;;;;;;0.50;0.50;;;12.80;71.50;;;;;;5039932;28;20202;-78
2022/05/17 00:23:52;;;;;;;0.40;0.40;;;12.70;98.20;;;;;;5042875;28;20180;-81
2022/05/17 00:26:17;;;;;;;0.40;0.40;;;12.70;99.90;;;;;;5036625;28;20211;-80
2022/05/17 00:28:43;;;;;;;0.30;0.30;;;12.70;99.90;;;;;;5038232;28;20172;-81
2022/05/17 00:31:09;;;;;;;0.40;0.40;;;12.80;99.90;;;;;;5036658;28;20554;-80
2022/05/17 00:33:35;;;;;;;0.50;0.50;;;12.80;99.90;;;;;;5034284;28;20176;-79
2022/05/17 00:36:02;;;;;;;0.40;0.40;;;12.80;95.10;;;;;;5036256;28;20191;-80
2022/05/17 00:38:27;;;;;;;0.40;0.40;;;12.70;85.50;;;;;;5039547;28;20525;-80
2022/05/17 00:40:53;;;;;;;0.40;0.40;;;12.70;75.70;;;;;;5039099;28;20290;-79
2022/05/17 00:46:26;;;;;;;0.30;0.30;;;12.70;46.10;;;;;;5039313;28;20222;-79
2022/05/17 00:48:53;;;;;;;0.50;0.50;;;12.70;80.20;;;;;;5031866;28;20262;-80
2022/05/17 00:51:24;;;;;;;0.50;0.50;;;12.60;93.30;;;;;;5038120;28;20202;-78
2022/05/17 00:53:51;;;;;;;0.50;0.50;;;12.60;94.80;;;;;;5036280;28;20199;-79
2022/05/17 00:56:21;;;;;;;0.50;0.50;;;12.60;95.80;;;;;;5035946;28;20176;-80
2022/05/17 00:58:52;;;;;;;0.60;0.60;;;12.60;99.90;;;;;;5035723;28;20251;-79
2022/05/17 01:01:21;;;;;;;0.40;0.40;;;12.60;99.90;;;;;;5035231;28;20281;-79
2022/05/17 01:03:55;;;;;;;0.40;0.40;;;12.60;99.90;;;;;;5034954;28;20186;-79
2022/05/17 01:06:22;;;;;;;0.40;0.40;;;12.60;99.90;;;;;;5035943;28;20456;-79
2022/05/17 01:08:48;;;;;;;0.40;0.40;;;12.60;99.90;;;;;;5038376;28;20176;-79
2022/05/17 01:11:14;;;;;;;0.40;0.40;;;12.60;98.10;;;;;;5037273;28;20208;-79
2022/05/17 01:16:25;;;;;;;0.40;0.40;;;12.50;82.20;;;;;;5036627;28;20271;-80
2022/05/17 01:18:51;;;;;;;0.43;0.43;;;12.40;60.00;;;;;;5036823;28;20187;-78
2022/05/17 01:21:17;;;;;;;0.50;0.50;;;12.40;59.30;;;;;;5037439;28;20207;-79
2022/05/17 01:23:43;;;;;;;0.40;0.40;;;12.40;88.50;;;;;;5039161;28;20182;-79
2022/05/17 01:26:15;;;;;;;0.40;0.40;;;12.40;90.60;;;;;;5036877;28;20560;-80
2022/05/17 01:28:41;;;;;;;0.60;0.60;;;12.40;99.30;;;;;;5037920;28;20183;-79
2022/05/17 01:31:07;;;;;;;0.40;0.40;;;12.40;99.90;;;;;;5038700;28;20196;-78
2022/05/17 01:33:35;;;;;;;0.40;0.40;;;12.30;99.90;;;;;;5043640;28;20199;-79
2022/05/17 01:36:02;;;;;;;0.43;0.43;;;12.30;99.90;;;;;;5045589;28;20238;-79
2022/05/17 01:38:29;;;;;;;0.50;0.50;;;12.30;99.90;;;;;;5044878;28;20201;-78
2022/05/17 01:40:54;;;;;;;0.50;0.50;;;12.20;99.10;;;;;;5045219;28;20267;-78
2022/05/17 01:43:20;;;;;;;0.47;0.47;;;12.20;96.60;;;;;;5045311;28;20598;-79
2022/05/17 01:45:46;;;;;;;0.47;0.47;;;12.20;93.60;;;;;;5045613;28;20234;-79
2022/05/17 01:48:11;;;;;;;0.40;0.40;;;12.20;93.90;;;;;;5046703;28;20563;-78
2022/05/17 01:50:37;;;;;;;0.40;0.40;;;12.20;99.90;;;;;;5044730;28;20271;-79
2022/05/17 01:53:03;;;;;;;0.40;0.40;;;12.20;99.90;;;;;;5042307;28;20176;-80
2022/05/17 01:55:29;;;;;;;0.50;0.50;;;12.10;99.90;;;;;;5043685;28;20192;-79
2022/05/17 01:57:54;;;;;;;0.50;0.50;;;12.10;99.90;;;;;;5045086;28;20220;-80
2022/05/17 02:00:23;;;;;;;0.50;0.50;;;12.10;99.90;;;;;;5043901;28;20179;-79
2022/05/17 02:02:50;;;;;;;0.40;0.40;;;12.00;99.90;;;;;;5045558;28;20171;-79
2022/05/17 02:05:17;;;;;;;0.50;0.50;;;12.00;99.90;;;;;;5049306;28;20617;-80
2022/05/17 02:07:42;;;;;;;0.60;0.60;;;12.00;99.90;;;;;;5050505;28;20183;-79
2022/05/17 02:10:08;;;;;;;0.40;0.40;;;12.00;99.90;;;;;;5047851;28;20175;-80
2022/05/17 02:12:34;;;;;;;0.43;0.43;;;11.90;99.90;;;;;;5048315;28;20601;-79
2022/05/17 02:14:59;;;;;;;0.60;0.60;;;11.90;99.90;;;;;;5044273;28;20175;-79
2022/05/17 02:17:25;;;;;;;0.60;0.60;;;11.90;99.90;;;;;;5042435;28;20183;-78
2022/05/17 02:19:51;;;;;;;0.50;0.50;;;11.90;99.90;;;;;;5039035;28;20191;-80
2022/05/17 02:22:16;;;;;;;0.60;0.60;;;11.80;99.90;;;;;;5039528;28;20237;-80
2022/05/17 02:24:42;;;;;;;0.50;0.50;;;11.70;99.90;;;;;;5040100;28;20229;-79
2022/05/17 02:27:07;;;;;;;0.40;0.40;;;11.70;96.90;;;;;;5044280;28;20237;-79
2022/05/17 02:29:33;;;;;;;0.47;0.47;;;11.70;99.90;;;;;;5048005;28;20318;-79
2022/05/17 02:31:58;;;;;;;0.50;0.50;;;11.60;99.90;;;;;;5048059;28;20257;-79
2022/05/17 02:34:24;;;;;;;0.40;0.40;;;11.60;99.90;;;;;;5049849;28;20167;-81
2022/05/17 02:36:50;;;;;;;0.50;0.50;;;11.60;99.90;;;;;;5044391;28;20633;-82
2022/05/17 02:39:15;;;;;;;0.50;0.50;;;11.60;99.90;;;;;;5043411;28;20179;-80
2022/05/17 02:41:41;;;;;;;0.40;0.40;;;11.50;99.90;;;;;;5046749;28;20278;-79
2022/05/17 02:44:07;;;;;;;0.60;0.60;;;11.50;99.90;;;;;;5046981;28;20176;-80
2022/05/17 02:46:33;;;;;;;0.43;0.43;;;11.60;99.90;;;;;;5042185;28;20207;-79
2022/05/17 02:49:01;;;;;;;0.50;0.50;;;11.50;99.90;;;;;;5043475;28;20183;-79
2022/05/17 02:51:28;;;;;;;0.50;0.50;;;11.50;99.90;;;;;;5042662;28;20200;-80
2022/05/17 02:53:54;;;;;;;0.60;0.60;;;11.40;99.90;;;;;;5046145;28;20229;-81
2022/05/17 02:56:20;;;;;;;0.40;0.40;;;11.40;99.90;;;;;;5049000;28;20194;-79
2022/05/17 02:58:45;;;;;;;0.50;0.50;;;11.40;99.90;;;;;;5047693;28;20180;-78
2022/05/17 03:01:11;;;;;;;0.57;0.57;;;11.30;99.90;;;;;;5047790;28;20613;-79
2022/05/17 03:03:41;;;;;;;0.40;0.40;;;11.30;99.90;;;;;;5047327;28;20210;-79
2022/05/17 03:06:08;;;;;;;0.40;0.40;;;11.40;99.90;;;;;;5046388;28;20547;-79
2022/05/17 03:08:34;;;;;;;0.50;0.50;;;11.30;99.90;;;;;;5049966;28;20188;-79
2022/05/17 03:11:00;;;;;;;0.60;0.60;;;11.30;99.90;;;;;;5050729;28;20192;-79
2022/05/17 03:13:26;;;;;;;0.60;0.60;;;11.20;99.90;;;;;;5049878;28;20180;-80
2022/05/17 03:15:51;;;;;;;0.60;0.60;;;11.20;99.90;;;;;;5050172;28;20180;-79
2022/05/17 03:18:17;;;;;;;0.60;0.60;;;11.20;99.90;;;;;;5050790;28;20159;-79
2022/05/17 03:20:43;;;;;;;0.50;0.50;;;11.10;99.90;;;;;;5050333;28;20203;-79
2022/05/17 03:23:09;;;;;;;0.50;0.50;;;11.10;99.90;;;;;;5049564;28;20183;-78
2022/05/17 03:25:34;;;;;;;0.50;0.50;;;11.10;99.90;;;;;;5050158;28;20207;-79
2022/05/17 03:28:00;;;;;;;0.47;0.47;;;11.10;99.90;;;;;;5048988;28;21000;-79
2022/05/17 03:30:27;;;;;;;0.50;0.50;;;11.10;99.90;;;;;;5048793;28;20180;-80
2022/05/17 03:32:53;;;;;;;0.50;0.50;;;11.10;99.90;;;;;;5047409;28;20187;-80
2022/05/17 03:35:18;;;;;;;0.47;0.47;;;11.20;99.90;;;;;;5046706;28;20176;-80
2022/05/17 03:37:44;;;;;;;0.60;0.60;;;11.20;99.90;;;;;;5048001;28;20190;-80
2022/05/17 03:40:11;;;;;;;0.40;0.40;;;11.30;99.90;;;;;;5045495;28;20194;-78
2022/05/17 03:42:37;;;;;;;0.60;0.60;;;11.10;99.90;;;;;;5048381;28;20272;-79
2022/05/17 03:45:05;;;;;;;0.60;0.60;;;11.00;99.90;;;;;;5050780;28;20172;-78
2022/05/17 03:47:30;;;;;;;0.60;0.60;;;11.10;99.90;;;;;;5050645;28;20211;-78
2022/05/17 03:49:56;;;;;;;0.50;0.50;;;11.00;99.90;;;;;;5049653;28;20180;-79
2022/05/17 03:52:29;;;;;;;0.50;0.50;;;11.20;99.90;;;;;;5050667;28;20226;-79
2022/05/17 03:54:56;;;;;;;0.40;0.40;;;11.00;99.90;;;;;;5051045;28;20199;-80
2022/05/17 03:57:22;;;;;;;0.50;0.50;;;11.10;99.90;;;;;;5050996;28;20231;-80
2022/05/17 03:59:48;;;;;;;0.70;0.70;;;11.10;99.90;;;;;;5049025;28;20187;-79
2022/05/17 04:02:14;;;;;;;0.50;0.50;;;11.20;99.90;;;;;;5048797;28;20626;-79
2022/05/17 04:04:39;;;;;;;0.50;0.50;;;11.20;99.90;;;;;;5048794;28;20259;-79
2022/05/17 04:07:05;;;;;;;0.40;0.40;;;11.40;99.90;;;;;;5048839;28;20211;-80
2022/05/17 04:09:31;;;;;;;0.40;0.40;;;11.30;99.90;;;;;;5047407;28;20172;-81
2022/05/17 04:11:56;;;;;;;0.40;0.40;;;11.40;99.90;;;;;;5045568;28;20202;-79
2022/05/17 04:14:22;;;;;;;0.40;0.40;;;11.60;99.90;;;;;;5043769;28;20179;-81
2022/05/17 04:16:47;;;;;;;0.60;0.60;;;11.70;99.90;;;;;;5041702;28;20175;-79
2022/05/17 04:19:15;;;;;;;0.50;0.50;;;11.90;99.90;;;;;;5041615;28;20659;-78
2022/05/17 04:21:42;;;;;;;0.50;0.50;;;12.00;81.30;;;;;;5043935;28;20204;-78
2022/05/17 04:24:08;;;;;;;0.50;0.50;;;12.30;22.60;;;;;;5043026;28;20481;-79
2022/05/17 04:26:34;;;;;;;0.53;0.53;;;12.50;2.90;;;;;;5044450;28;20275;-79
2022/05/17 04:28:59;;;;;;;0.63;0.63;;;12.60;1.00;;;;;;5045584;28;20240;-78
2022/05/17 04:31:25;;;;;;;0.43;0.43;;;12.90;1.00;;;;;;5045537;28;20256;-78
2022/05/17 04:33:51;;;;;;;0.40;0.40;;;13.10;1.00;;;;;;5048893;28;20716;-79
2022/05/17 04:36:16;;;;;;;0.40;0.40;;;13.30;1.00;;;;;;5048132;28;20175;-78
2022/05/17 04:38:42;;;;;;;0.40;0.40;;;13.40;1.00;;;;;;5044551;28;20186;-79
2022/05/17 04:41:07;;;;;;;0.40;0.40;;;13.70;1.00;;;;;;5046723;28;20605;-78
2022/05/17 04:43:33;;;;;;;0.40;0.40;;;14.00;1.00;;;;;;5045037;28;20172;-80
2022/05/17 04:45:58;;;;;;;0.53;0.53;;;14.20;99.90;;;;;;5040061;28;20199;-79
2022/05/17 04:48:24;;;;;;;0.33;0.33;;;14.40;1.00;;;;;;5042205;28;20484;-80
2022/05/17 04:50:51;;;;;;;0.50;0.50;;;14.50;1.00;;;;;;5037815;28;20195;-79
2022/05/17 04:53:17;;;;;;;0.50;0.50;;;14.60;1.00;;;;;;5039846;28;20182;-79
2022/05/17 04:55:42;;;;;;;0.40;0.40;;;14.70;1.00;;;;;;5035445;28;20214;-80
2022/05/17 04:58:08;;;;;;;0.40;0.40;;;14.80;1.00;;;;;;5035237;28;20176;-80
2022/05/17 05:00:34;;;;;;;0.40;0.40;;;15.10;99.90;;;;;;5032538;28;20601;-79
2022/05/17 05:03:00;;;;;;;0.40;0.40;;;15.30;99.90;;;;;;5038466;28;20180;-79
2022/05/17 05:05:25;;;;;;;0.50;0.50;;;15.50;1.00;;;;;;5036628;28;20245;-79
2022/05/17 05:07:52;;;;;;;0.30;0.30;;;15.40;1.00;;;;;;5034750;28;20183;-79
2022/05/17 05:10:17;;;;;;;0.40;0.40;;;15.50;1.00;;;;;;5037512;28;20191;-79
2022/05/17 05:12:43;;;;;;;0.40;0.40;;;15.50;1.00;;;;;;5039147;28;20195;-79
2022/05/17 05:15:10;;;;;;;0.30;0.30;;;15.40;61.50;;;;;;5037779;28;20249;-79
2022/05/17 05:17:37;;;;;;;0.40;0.40;;;15.30;99.90;;;;;;5038549;28;20266;-80
2022/05/17 05:20:04;;;;;;;0.40;0.40;;;15.10;99.90;;;;;;5036138;28;20203;-79
2022/05/17 05:22:31;;;;;;;0.50;0.50;;;14.90;99.90;;;;;;5039913;28;20200;-79
2022/05/17 05:24:56;;;;;;;0.50;0.50;;;14.60;1.00;;;;;;5045192;28;20221;-78
2022/05/17 05:27:22;;;;;;;0.40;0.40;;;14.50;1.00;;;;;;5044761;28;20255;-78
2022/05/17 05:29:48;;;;;;;0.37;0.37;;;14.50;1.00;;;;;;5040559;28;20187;-78
2022/05/17 05:32:13;;;;;;;0.40;0.40;;;14.60;1.00;;;;;;5040475;28;20195;-78
2022/05/17 05:34:39;;;;;;;0.40;0.40;;;14.70;1.00;;;;;;5038330;28;20187;-78
2022/05/17 05:37:05;;;;;;;0.40;0.40;;;14.90;1.00;;;;;;5038901;28;20229;-80
2022/05/17 05:39:31;;;;;;;0.30;0.30;;;15.20;1.00;;;;;;5039533;28;20188;-80
2022/05/17 05:41:56;;;;;;;0.30;0.30;;;15.50;1.00;;;;;;5034657;28;20196;-81
2022/05/17 05:44:22;;;;;;;0.43;0.43;;;15.70;99.90;;;;;;5035354;28;20210;-81
2022/05/17 05:46:48;;;;;;;0.40;0.40;;;15.70;1.00;;;;;;5039977;28;20267;-81
2022/05/17 05:49:13;;;;;;;0.50;0.50;;;15.50;99.90;;;;;;5045663;28;20186;-79
2022/05/17 05:51:40;;;;;;;0.40;0.40;;;15.40;1.00;;;;;;5049259;28;20689;-76
2022/05/17 05:54:06;;;;;;;0.40;0.40;;;15.40;1.00;;;;;;5049902;28;20190;-80
2022/05/17 05:56:32;;;;;;;0.40;0.40;;;15.40;1.00;;;;;;5045940;28;20184;-80
2022/05/17 05:58:58;;;;;;;0.40;0.40;;;15.30;1.00;;;;;;5038134;28;20568;-79
2022/05/17 06:01:23;;;;;;;0.30;0.30;;;15.50;1.00;;;;;;5037168;28;20196;-81
2022/05/17 06:03:49;;;;;;;0.40;0.40;;;15.60;1.00;;;;;;5025394;28;20529;-81
2022/05/17 06:06:16;;;;;;;0.40;0.40;;;15.60;1.00;;;;;;5034336;28;20294;-81
2022/05/17 06:08:42;;;;;;;0.30;0.30;;;15.80;1.00;;;;;;5033767;28;20190;-78
2022/05/17 06:11:07;;;;;;;0.40;0.40;;;15.90;1.00;;;;;;5032694;28;20736;-80
2022/05/17 06:13:33;;;;;;;0.40;0.40;;;15.90;1.00;;;;;;5032328;28;20192;-79
2022/05/17 06:15:59;;;;;;;0.40;0.40;;;15.80;1.00;;;;;;5026477;28;20226;-79
2022/05/17 06:18:25;;;;;;;0.30;0.30;;;15.60;1.00;;;;;;5031270;28;20187;-78
2022/05/17 06:20:53;;;;;;;0.43;0.43;;;15.60;1.00;;;;;;5028845;28;20204;-78
2022/05/17 06:23:20;;;;;;;0.40;0.40;;;15.70;1.00;;;;;;5031868;28;20667;-79
2022/05/17 06:25:46;;;;;;;0.37;0.37;;;15.80;1.00;;;;;;5030720;28;20208;-79
2022/05/17 06:28:12;;;;;;;0.30;0.30;;;15.80;1.00;;;;;;5033002;28;20203;-78
2022/05/17 06:30:38;;;;;;;0.40;0.40;;;16.10;1.00;;;;;;5032757;28;20183;-78
2022/05/17 06:33:09;;;;;;;0.40;0.40;;;16.00;1.00;;;;;;5031297;28;20262;-80
2022/05/17 06:35:35;;;;;;;0.40;0.40;;;15.90;1.00;;;;;;5032844;28;20262;-78
2022/05/17 06:38:02;;;;;;;0.40;0.40;;;15.90;1.00;;;;;;5030036;28;20215;-79
2022/05/17 06:40:27;;;;;;;0.40;0.40;;;16.10;1.00;;;;;;5033081;28;20230;-79
2022/05/17 06:42:53;;;;;;;0.40;0.40;;;16.30;1.00;;;;;;5034113;28;20176;-79
2022/05/17 06:45:18;;;;;;;0.30;0.30;;;16.30;1.00;;;;;;5037131;28;20246;-82
2022/05/17 06:47:44;;;;;;;0.30;0.30;;;16.40;1.00;;;;;;5036472;28;20426;-78
2022/05/17 06:50:10;;;;;;;0.30;0.30;;;16.70;1.00;;;;;;5035703;28;20184;-78
2022/05/17 06:52:36;;;;;;;0.40;0.40;;;17.00;1.00;;;;;;5035548;28;20669;-78
2022/05/17 06:55:01;;;;;;;0.40;0.40;;;17.10;1.00;;;;;;5034795;28;20203;-78
2022/05/17 06:57:27;;;;;;;0.40;0.40;;;17.30;99.90;;;;;;5036316;28;20184;-79
2022/05/17 06:59:52;;;;;;;0.30;0.30;;;17.50;99.90;;;;;;5034964;28;20188;-79
2022/05/17 07:02:18;;;;;;;0.40;0.40;;;17.60;1.00;;;;;;5037766;28;20286;-79
2022/05/17 07:04:43;;;;;;;0.30;0.30;;;17.80;1.00;;;;;;5038419;28;20175;-81
2022/05/17 07:07:10;;;;;;;0.30;0.30;;;17.90;1.00;;;;;;5042099;28;20214;-82
2022/05/17 07:09:36;;;;;;;0.40;0.40;;;18.10;99.90;;;;;;5037894;28;20175;-82
2022/05/17 07:14:46;;;;;;;0.30;0.30;;;18.80;99.90;;;;;;5029105;28;20203;-80
2022/05/17 07:17:13;;;;;;;0.30;0.30;;;18.90;1.00;;;;;;5035395;28;20176;-81
2022/05/17 07:19:39;;;;;;;0.30;0.30;;;19.10;1.00;;;;;;5038875;28;20236;-81
2022/05/17 07:22:05;;;;;;;0.30;0.30;;;19.10;1.00;;;;;;5035872;28;20238;-80
2022/05/17 07:24:32;;;;;;;0.30;0.30;;;19.30;99.90;;;;;;5038569;28;20517;-84
2022/05/17 07:26:59;;;;;;;0.40;0.40;;;19.20;1.00;;;;;;5043410;28;20250;-82
2022/05/17 07:29:25;;;;;;;0.30;0.30;;;19.20;1.00;;;;;;5043383;28;20195;-80
2022/05/17 07:31:51;;;;;;;0.30;0.30;;;19.30;1.00;;;;;;5038206;28;20207;-81
2022/05/17 07:34:17;;;;;;;0.30;0.30;;;19.40;1.00;;;;;;5035769;28;20659;-81
2022/05/17 07:36:44;;;;;;;0.30;0.30;;;19.70;99.90;;;;;;5036302;28;20243;-83
2022/05/17 07:39:10;;;;;;;0.30;0.30;;;20.00;1.00;;;;;;5034022;28;20648;-80
2022/05/17 07:41:35;;;;;;;0.33;0.33;;;20.20;1.00;;;;;;5032033;28;20208;-81
2022/05/17 07:44:02;;;;;;;0.30;0.30;;;20.70;1.00;;;;;;5032479;28;20191;-80
2022/05/17 07:46:28;;;;;;;0.30;0.30;;;21.40;99.90;;;;;;5027031;28;20212;-82
2022/05/17 07:48:54;;;;;;;0.40;0.40;;;21.70;89.20;;;;;;5023215;28;20241;-77
2022/05/17 07:51:20;;;;;;;0.40;0.40;;;22.40;1.00;;;;;;5033210;28;20227;-82
2022/05/17 07:53:46;;;;;;;0.40;0.40;;;23.00;1.00;;;;;;5040737;28;20180;-80
2022/05/17 07:56:12;;;;;;;0.53;0.53;;;23.40;1.00;;;;;;5040604;28;20192;-81
2022/05/17 07:58:38;;;;;;;0.47;0.47;;;23.70;1.00;;;;;;5042811;28;20180;-81
2022/05/17 08:01:04;;;;;;;0.40;0.40;;;24.30;1.00;;;;;;5040989;28;20207;-80
2022/05/17 08:03:30;;;;;;;0.50;0.50;;;24.40;1.00;;;;;;5043586;28;20184;-80
2022/05/17 08:05:56;;;;;;;0.40;0.40;;;24.60;1.00;;;;;;5045167;28;20681;-79
2022/05/17 08:08:21;;;;;;;0.33;0.33;;;24.40;1.00;;;;;;5045882;28;20187;-80
2022/05/17 08:10:47;;;;;;;0.40;0.40;;;24.50;1.00;;;;;;5040061;28;20199;-82
2022/05/17 08:13:14;;;;;;;0.50;0.50;;;24.50;1.00;;;;;;5044759;28;20195;-80
2022/05/17 08:15:40;;;;;;;0.33;0.33;;;24.40;1.00;;;;;;5041908;28;20199;-81
2022/05/17 08:18:06;;;;;;;0.50;0.50;;;24.30;1.00;;;;;;5034747;28;20173;-81
2022/05/17 08:20:33;;;;;;;0.47;0.47;;;24.80;1.00;;;;;;5035756;28;20557;-80
2022/05/17 08:22:59;;;;;;;0.60;0.60;;;25.30;1.00;;;;;;5035887;28;20179;-81
2022/05/17 08:28:09;;;;;;;0.40;0.40;;;25.60;1.00;;;;;;5040650;28;20186;-77
2022/05/17 08:30:36;;;;;;;0.50;0.50;;;25.30;1.00;;;;;;5028004;28;20208;-79
2022/05/17 08:33:19;;;;;;;0.57;0.57;;;25.40;1.00;;;;;;5027363;28;20178;-81
2022/05/17 08:35:53;;;;;;;0.50;0.50;;;25.50;1.00;;;;;;5032537;28;20176;-82
2022/05/17 08:38:31;;;;;;;0.50;0.50;;;25.20;1.00;;;;;;5021311;28;20509;-80
2022/05/17 08:41:09;;;;;;;0.50;0.50;;;25.50;1.00;;;;;;5030651;28;20253;-81
2022/05/17 08:43:41;;;;;;;0.50;0.50;;;25.90;1.00;;;;;;5045779;28;20175;-81
2022/05/17 08:46:37;;;;;;;0.53;0.53;;;26.50;1.00;;;;;;5052030;28;20215;-81
2022/05/17 08:49:24;;;;;;;0.40;0.40;;;26.60;1.00;;;;;;5053778;28;20184;-81
2022/05/17 08:51:55;;;;;;;0.43;0.43;;;26.00;1.00;;;;;;5051804;28;20195;-82
2022/05/17 08:54:33;;;;;;;0.37;0.37;;;25.80;1.00;;;;;;5050607;28;20196;-84
2022/05/17 08:57:15;;;;;;;0.40;0.40;;;25.90;1.00;;;;;;5048898;28;20172;-86
2022/05/17 08:59:42;;;;;;;0.30;0.30;;;25.80;1.00;;;;;;5047288;28;20675;-85
2022/05/17 09:02:16;;;;;;;0.40;0.40;;;25.60;1.00;;;;;;5047983;28;20196;-83
2022/05/17 09:04:52;;;;;;;0.33;0.33;;;25.80;1.00;;;;;;5046729;28;20176;-85
2022/05/17 09:07:22;;;;;;;0.40;0.40;;;26.20;1.00;;;;;;5045516;28;20291;-83
2022/05/17 09:10:18;;;;;;;0.40;0.40;;;26.60;1.00;;;;;;5039475;28;20180;-83
2022/05/17 09:12:54;;;;;;;0.40;0.40;;;26.80;1.00;;;;;;5041643;28;20195;-81
2022/05/17 09:15:20;;;;;;;0.50;0.50;;;26.90;1.00;;;;;;5042130;28;20180;-82
2022/05/17 09:17:45;;;;;;;0.50;0.50;;;27.10;1.00;;;;;;5040200;28;20187;-83
2022/05/17 09:20:19;;;;;;;0.53;0.53;;;27.30;1.00;;;;;;5041388;28;20200;-82
2022/05/17 09:22:45;;;;;;;0.40;0.40;;;27.10;1.00;;;;;;5038168;28;20200;-82
2022/05/17 09:25:26;;;;;;;0.50;0.50;;;27.10;1.00;;;;;;5032625;28;20183;-78
2022/05/17 09:27:53;;;;;;;0.50;0.50;;;27.40;1.00;;;;;;5040205;28;20318;-83
2022/05/17 09:30:21;;;;;;;0.40;0.40;;;27.60;1.00;;;;;;5028188;28;20180;-82
2022/05/17 09:32:48;;;;;;;0.60;0.60;;;27.90;1.00;;;;;;5023730;28;20646;-82
2022/05/17 09:35:18;;;;;;;0.60;0.60;;;27.70;1.00;;;;;;5030905;28;20233;-84
2022/05/17 09:37:49;;;;;;;0.60;0.60;;;27.70;1.00;;;;;;5024641;28;20180;-83
2022/05/17 09:40:22;;;;;;;0.60;0.60;;;27.60;1.00;;;;;;5025958;28;20188;-81
2022/05/17 09:43:04;;;;;;;0.60;0.60;;;27.90;1.00;;;;;;5024125;28;20263;-82
2022/05/17 09:45:38;;;;;;;0.40;0.40;;;28.20;1.00;;;;;;5027289;28;20176;-83
2022/05/17 09:48:07;;;;;;;0.70;0.70;;;28.20;1.00;;;;;;5030032;28;20186;-84
2022/05/17 09:53:49;;;;;;;0.60;0.60;;;28.10;1.00;;;;;;5032156;28;20652;-83
2022/05/17 09:56:16;;;;;;;0.60;0.60;;;27.50;1.00;;;;;;5029458;28;20179;-82
2022/05/17 09:58:44;;;;;;;0.50;0.50;;;28.00;1.00;;;;;;5032006;28;20191;-82
2022/05/17 10:01:21;;;;;;;0.60;0.60;;;28.00;1.00;;;;;;5029794;28;20200;-84
2022/05/17 10:04:05;;;;;;;0.50;0.50;;;27.00;1.00;;;;;;5028714;28;20182;-84
2022/05/17 10:06:43;;;;;;;0.40;0.40;;;26.40;1.00;;;;;;5036040;28;20196;-83
2022/05/17 10:09:25;;;;;;;0.50;0.50;;;26.30;1.00;;;;;;5038905;28;20173;-81
2022/05/17 10:11:58;;;;;;;0.50;0.50;;;26.20;1.00;;;;;;5044570;28;20188;-87
2022/05/17 10:14:37;;;;;;;0.60;0.60;;;26.20;1.00;;;;;;5023687;28;20184;-84
2022/05/17 10:17:02;;;;;;;0.60;0.60;;;26.70;1.00;;;;;;5028105;28;20229;-85
2022/05/17 10:19:51;;;;;;;0.50;0.50;;;27.00;1.00;;;;;;5033344;28;20610;-85
2022/05/17 10:22:34;;;;;;;0.60;0.60;;;27.40;1.00;;;;;;5030433;28;20204;-83
2022/05/17 10:25:08;;;;;;;0.40;0.40;;;27.30;1.00;;;;;;5036571;28;20578;-83
2022/05/17 10:28:03;;;;;;;0.50;0.50;;;27.60;1.00;;;;;;5034554;28;20212;-85
2022/05/17 10:30:57;;;;;;;0.53;0.53;;;28.10;1.00;;;;;;5033349;28;20195;-87
2022/05/17 10:33:39;;;;;;;0.60;0.60;;;28.20;1.00;;;;;;5036082;28;20254;-85
2022/05/17 10:36:23;;;;;;;0.50;0.50;;;28.00;1.00;;;;;;5036314;28;20180;-85
2022/05/17 10:39:01;;;;;;;0.60;0.60;;;28.20;1.00;;;;;;5033776;28;20255;-84
2022/05/17 10:41:26;;;;;;;0.50;0.50;;;28.40;1.00;;;;;;5033873;28;20206;-85
2022/05/17 10:43:53;;;;;;;0.60;0.60;;;28.50;1.00;;;;;;5035319;28;20183;-85
2022/05/17 10:46:31;;;;;;;0.60;0.60;;;28.60;1.00;;;;;;5036096;28;20235;-86
2022/05/17 10:49:11;;;;;;;0.70;0.70;;;28.90;1.00;;;;;;5034853;28;20588;-85
2022/05/17 10:51:45;;;;;;;0.50;0.50;;;29.00;1.00;;;;;;5034823;28;20187;-86
2022/05/17 10:54:29;;;;;;;0.60;0.60;;;29.30;1.00;;;;;;5036393;28;20187;-85
2022/05/17 10:57:01;;;;;;;0.57;0.57;;;29.50;1.00;;;;;;5037691;28;20200;-85
2022/05/17 10:59:53;;;;;;;0.60;0.60;;;29.50;1.00;;;;;;5036234;28;20180;-85
2022/05/17 11:02:24;;;;;;;0.53;0.53;;;29.10;1.00;;;;;;5038246;28;20204;-85
2022/05/17 11:05:18;;;;;;;0.67;0.67;;;29.20;1.00;;;;;;5041092;28;20176;-83
2022/05/17 11:08:21;;;;;;;0.70;0.70;;;29.00;1.00;;;;;;5033601;28;20223;-85
2022/05/17 11:11:01;;;;;;;0.60;0.60;;;28.90;1.00;;;;;;5029979;28;20200;-82
2022/05/17 11:13:49;;;;;;;0.50;0.50;;;28.90;1.00;;;;;;5034503;28;20255;-85
2022/05/17 11:16:31;;;;;;;0.60;0.60;;;29.30;1.00;;;;;;5024532;28;20223;-83
2022/05/17 11:19:10;;;;;;;0.57;0.57;;;29.30;1.00;;;;;;5020614;28;20176;-84
2022/05/17 11:22:01;;;;;;;0.60;0.60;;;29.10;1.00;;;;;;5022357;28;20204;-84
2022/05/17 11:24:36;;;;;;;0.60;0.60;;;28.40;1.00;;;;;;5027095;28;20184;-83
2022/05/17 11:27:25;;;;;;;0.40;0.40;;;28.10;1.00;;;;;;5033032;28;20203;-81
2022/05/17 11:30:08;;;;;;;0.50;0.50;;;28.30;1.00;;;;;;5027222;28;20169;-81
2022/05/17 11:32:36;;;;;;;0.70;0.70;;;28.80;1.00;;;;;;5021157;28;20201;-81
2022/05/17 11:35:24;;;;;;;0.50;0.50;;;29.10;1.00;;;;;;5019340;28;20189;-81
2022/05/17 11:37:51;;;;;;;0.50;0.50;;;29.50;1.00;;;;;;5019980;28;20181;-82
2022/05/17 11:40:49;;;;;;;0.43;0.43;;;29.80;1.00;;;;;;5020282;28;20180;-82
2022/05/17 11:43:47;;;;;;;0.50;0.50;;;30.00;1.00;;;;;;5019133;28;20318;-81
2022/05/17 11:46:24;;;;;;;0.67;0.67;;;29.70;1.00;;;;;;5002680;28;20712;-80
2022/05/17 11:49:06;;;;;;;0.60;0.60;;;30.00;1.00;;;;;;5019269;28;20554;-83
2022/05/17 11:51:38;;;;;;;0.50;0.50;;;29.80;1.00;;;;;;5019244;28;20207;-81
2022/05/17 11:54:08;;;;;;;0.60;0.60;;;29.20;1.00;;;;;;5020652;28;20204;-79
2022/05/17 11:56:37;;;;;;;0.60;0.60;;;29.30;1.00;;;;;;5019877;28;20179;-81
2022/05/17 11:59:08;;;;;;;0.50;0.50;;;29.60;1.00;;;;;;5106688;23;20760;-75
2022/05/17 12:01:35;;;;;;;0.60;0.60;;;29.90;1.00;;;;;;4993896;28;20650;-74
2022/05/17 12:04:09;;;;;;;0.50;0.50;;;29.60;1.00;;;;;;4994724;28;20184;-75
2022/05/17 12:06:41;;;;;;;0.50;0.50;;;28.90;1.00;;;;;;4994317;28;20280;-76
2022/05/17 12:09:27;;;;;;;0.37;0.37;;;28.10;1.00;;;;;;4994394;28;20181;-74
2022/05/17 12:12:22;;;;;;;0.50;0.50;;;27.30;1.00;;;;;;4993999;28;20193;-74
2022/05/17 12:14:51;;;;;;;0.30;0.30;;;27.40;1.00;;;;;;4993992;28;20181;-73
2022/05/17 12:17:29;;;;;;;0.37;0.37;;;27.20;1.00;;;;;;4994039;28;20181;-72
2022/05/17 12:20:05;;;;;;;0.40;0.40;;;27.20;1.00;;;;;;4991975;28;20181;-72
2022/05/17 12:22:50;;;;;;;0.40;0.40;;;27.00;1.00;;;;;;4996221;28;20199;-72
2022/05/17 12:25:31;;;;;;;0.40;0.40;;;27.10;1.00;;;;;;4995780;28;20568;-72
2022/05/17 12:27:59;;;;;;;0.30;0.30;;;27.20;1.00;;;;;;4994860;28;20219;-72
2022/05/17 12:33:34;;;;;;;0.40;0.40;;;27.00;1.00;;;;;;4993303;28;20700;-75
2022/05/17 12:36:19;;;;;;;0.30;0.30;;;26.70;1.00;;;;;;4993339;28;20205;-74
2022/05/17 12:44:54;;;;;;;0.30;0.30;;;27.30;1.00;;;;;;4994193;28;20618;-74
2022/05/17 12:47:43;;;;;;;0.40;0.40;;;27.00;1.00;;;;;;4993899;28;20633;-76
2022/05/17 12:50:16;;;;;;;0.40;0.40;;;27.40;1.00;;;;;;4993862;28;20187;-74
2022/05/17 12:52:43;;;;;;;0.40;0.40;;;27.60;1.00;;;;;;4994470;28;20208;-73
2022/05/17 12:55:24;;;;;;;0.50;0.50;;;27.50;1.00;;;;;;4994285;28;20271;-74
2022/05/17 12:57:52;;;;;;;0.43;0.43;;;27.90;1.00;;;;;;4993997;28;20217;-74
2022/05/17 13:00:25;;;;;;;0.30;0.30;;;28.40;1.00;;;;;;4993056;28;20212;-74
2022/05/17 13:02:58;;;;;;;0.40;0.40;;;28.40;1.00;;;;;;4993535;28;20715;-73
2022/05/17 13:05:27;;;;;;;0.30;0.30;;;28.10;1.00;;;;;;4993750;28;20181;-73
2022/05/17 13:08:11;;;;;;;0.50;0.50;;;28.20;1.00;;;;;;4993586;28;20263;-74
2022/05/17 13:10:40;;;;;;;0.50;0.50;;;28.60;1.00;;;;;;4992693;28;20671;-72
2022/05/17 13:13:13;;;;;;;0.40;0.40;;;28.60;1.00;;;;;;4993440;28;20204;-73
2022/05/17 13:15:41;;;;;;;0.33;0.33;;;28.90;1.00;;;;;;4993497;28;20181;-73
2022/05/17 13:18:08;;;;;;;0.50;0.50;;;29.10;1.00;;;;;;4993232;28;20177;-73
2022/05/17 13:20:33;;;;;;;0.40;0.40;;;29.30;1.00;;;;;;4992775;28;20177;-73
2022/05/17 13:22:59;;;;;;;0.60;0.60;;;29.50;1.00;;;;;;4993166;28;20227;-73
2022/05/17 13:25:36;;;;;;;0.50;0.50;;;29.50;1.00;;;;;;4993122;28;20192;-73
2022/05/17 13:28:02;;;;;;;0.60;0.60;;;29.60;1.00;;;;;;4993032;28;20734;-74
2022/05/17 13:30:37;;;;;;;0.40;0.40;;;29.80;1.00;;;;;;4992357;28;20252;-73